sensor_id;sensor_type;location;lat;lon;timestamp;P1;durP1;ratioP1;P2;durP2;ratioP2
4839;SDS011;2434;48.486;7.964;2022-11-25T00:01:12;6.83;;;2.63;;
4839;SDS011;2434;48.486;7.964;2022-11-25T00:03:41;6.63;;;2.70;;
4839;SDS011;2434;48.486;7.964;2022-11-25T00:06:11;6.03;;;2.57;;
4839;SDS011;2434;48.486;7.964;2022-11-25T00:08:41;5.40;;;2.57;;
4839;SDS011;2434;48.486;7.964;2022-11-25T00:11:11;4.20;;;2.83;;
4839;SDS011;2434;48.486;7.964;2022-11-25T00:13:41;8.30;;;3.20;;
4839;SDS011;2434;48.486;7.964;2022-11-25T00:16:11;4.60;;;2.27;;
4839;SDS011;2434;48.486;7.964;2022-11-25T00:18:42;12.40;;;3.93;;
4839;SDS011;2434;48.486;7.964;2022-11-25T00:21:12;3.70;;;2.90;;
4839;SDS011;2434;48.486;7.964;2022-11-25T00:23:43;4.60;;;2.90;;
4839;SDS011;2434;48.486;7.964;2022-11-25T00:26:12;4.80;;;3.00;;
4839;SDS011;2434;48.486;7.964;2022-11-25T00:28:43;4.53;;;2.67;;
4839;SDS011;2434;48.486;7.964;2022-11-25T00:31:13;5.83;;;2.83;;
4839;SDS011;2434;48.486;7.964;2022-11-25T00:33:43;9.50;;;3.53;;
4839;SDS011;2434;48.486;7.964;2022-11-25T00:36:13;5.30;;;2.93;;
4839;SDS011;2434;48.486;7.964;2022-11-25T00:38:44;10.13;;;2.80;;
4839;SDS011;2434;48.486;7.964;2022-11-25T00:41:12;7.53;;;3.00;;
4839;SDS011;2434;48.486;7.964;2022-11-25T00:44:00;4.70;;;2.80;;
4839;SDS011;2434;48.486;7.964;2022-11-25T00:46:48;10.40;;;2.63;;
4839;SDS011;2434;48.486;7.964;2022-11-25T00:49:16;6.93;;;2.30;;
4839;SDS011;2434;48.486;7.964;2022-11-25T00:51:45;6.20;;;2.20;;
4839;SDS011;2434;48.486;7.964;2022-11-25T00:54:13;4.60;;;2.10;;
4839;SDS011;2434;48.486;7.964;2022-11-25T00:56:42;5.13;;;1.90;;
4839;SDS011;2434;48.486;7.964;2022-11-25T00:59:11;2.70;;;1.70;;
4839;SDS011;2434;48.486;7.964;2022-11-25T01:01:39;6.00;;;2.20;;
4839;SDS011;2434;48.486;7.964;2022-11-25T01:04:07;7.10;;;2.10;;
4839;SDS011;2434;48.486;7.964;2022-11-25T01:06:36;3.03;;;1.40;;
4839;SDS011;2434;48.486;7.964;2022-11-25T01:09:05;7.13;;;2.70;;
4839;SDS011;2434;48.486;7.964;2022-11-25T01:11:37;6.27;;;2.63;;
4839;SDS011;2434;48.486;7.964;2022-11-25T01:14:09;3.80;;;2.00;;
4839;SDS011;2434;48.486;7.964;2022-11-25T01:16:37;4.80;;;2.37;;
4839;SDS011;2434;48.486;7.964;2022-11-25T01:19:06;5.50;;;2.03;;
4839;SDS011;2434;48.486;7.964;2022-11-25T01:21:34;4.80;;;1.90;;
4839;SDS011;2434;48.486;7.964;2022-11-25T01:24:03;4.43;;;2.07;;
4839;SDS011;2434;48.486;7.964;2022-11-25T01:26:32;5.70;;;2.60;;
4839;SDS011;2434;48.486;7.964;2022-11-25T01:29:03;2.50;;;1.70;;
4839;SDS011;2434;48.486;7.964;2022-11-25T01:31:34;6.03;;;1.70;;
4839;SDS011;2434;48.486;7.964;2022-11-25T01:34:04;4.03;;;1.83;;
4839;SDS011;2434;48.486;7.964;2022-11-25T01:36:34;7.33;;;1.57;;
4839;SDS011;2434;48.486;7.964;2022-11-25T01:39:03;5.23;;;1.93;;
4839;SDS011;2434;48.486;7.964;2022-11-25T01:41:32;2.10;;;1.40;;
4839;SDS011;2434;48.486;7.964;2022-11-25T01:44:09;6.53;;;1.50;;
4839;SDS011;2434;48.486;7.964;2022-11-25T01:46:43;4.23;;;1.67;;
4839;SDS011;2434;48.486;7.964;2022-11-25T01:49:15;5.27;;;2.10;;
4839;SDS011;2434;48.486;7.964;2022-11-25T01:51:46;3.57;;;1.43;;
4839;SDS011;2434;48.486;7.964;2022-11-25T01:54:19;6.40;;;1.80;;
4839;SDS011;2434;48.486;7.964;2022-11-25T01:56:52;4.77;;;1.80;;
4839;SDS011;2434;48.486;7.964;2022-11-25T01:59:25;1.47;;;1.30;;
4839;SDS011;2434;48.486;7.964;2022-11-25T02:01:57;3.03;;;1.80;;
4839;SDS011;2434;48.486;7.964;2022-11-25T02:04:27;4.33;;;1.33;;
4839;SDS011;2434;48.486;7.964;2022-11-25T02:07:03;3.10;;;1.67;;
4839;SDS011;2434;48.486;7.964;2022-11-25T02:09:36;5.13;;;1.50;;
4839;SDS011;2434;48.486;7.964;2022-11-25T02:12:07;2.60;;;1.50;;
4839;SDS011;2434;48.486;7.964;2022-11-25T02:14:36;2.60;;;1.20;;
4839;SDS011;2434;48.486;7.964;2022-11-25T02:17:07;5.23;;;1.93;;
4839;SDS011;2434;48.486;7.964;2022-11-25T02:19:38;4.47;;;1.73;;
4839;SDS011;2434;48.486;7.964;2022-11-25T02:22:25;6.13;;;2.53;;
4839;SDS011;2434;48.486;7.964;2022-11-25T02:25:00;2.57;;;1.50;;
4839;SDS011;2434;48.486;7.964;2022-11-25T02:27:37;4.30;;;1.73;;
4839;SDS011;2434;48.486;7.964;2022-11-25T02:30:06;3.27;;;1.80;;
4839;SDS011;2434;48.486;7.964;2022-11-25T02:32:35;1.77;;;1.60;;
4839;SDS011;2434;48.486;7.964;2022-11-25T02:35:18;2.27;;;1.30;;
4839;SDS011;2434;48.486;7.964;2022-11-25T02:37:55;6.77;;;1.73;;
4839;SDS011;2434;48.486;7.964;2022-11-25T02:40:28;10.00;;;2.40;;
4839;SDS011;2434;48.486;7.964;2022-11-25T02:42:58;3.90;;;1.40;;
4839;SDS011;2434;48.486;7.964;2022-11-25T02:45:30;5.07;;;2.07;;
4839;SDS011;2434;48.486;7.964;2022-11-25T02:48:06;3.93;;;1.67;;
4839;SDS011;2434;48.486;7.964;2022-11-25T02:50:34;2.57;;;1.33;;
4839;SDS011;2434;48.486;7.964;2022-11-25T02:53:03;2.40;;;1.73;;
4839;SDS011;2434;48.486;7.964;2022-11-25T02:55:32;3.47;;;1.47;;
4839;SDS011;2434;48.486;7.964;2022-11-25T02:58:01;1.53;;;1.20;;
4839;SDS011;2434;48.486;7.964;2022-11-25T03:00:29;4.97;;;1.63;;
4839;SDS011;2434;48.486;7.964;2022-11-25T03:02:57;8.30;;;1.53;;
4839;SDS011;2434;48.486;7.964;2022-11-25T03:05:25;4.53;;;1.80;;
4839;SDS011;2434;48.486;7.964;2022-11-25T03:07:54;5.60;;;2.27;;
4839;SDS011;2434;48.486;7.964;2022-11-25T03:10:23;5.07;;;1.73;;
4839;SDS011;2434;48.486;7.964;2022-11-25T03:12:53;4.70;;;2.03;;
4839;SDS011;2434;48.486;7.964;2022-11-25T03:15:21;5.73;;;1.90;;
4839;SDS011;2434;48.486;7.964;2022-11-25T03:17:50;3.40;;;1.90;;
4839;SDS011;2434;48.486;7.964;2022-11-25T03:20:19;4.87;;;2.10;;
4839;SDS011;2434;48.486;7.964;2022-11-25T03:22:47;2.10;;;1.50;;
4839;SDS011;2434;48.486;7.964;2022-11-25T03:25:16;3.17;;;1.43;;
4839;SDS011;2434;48.486;7.964;2022-11-25T03:27:48;4.07;;;1.50;;
4839;SDS011;2434;48.486;7.964;2022-11-25T03:30:20;3.60;;;1.63;;
4839;SDS011;2434;48.486;7.964;2022-11-25T03:32:54;4.40;;;2.00;;
4839;SDS011;2434;48.486;7.964;2022-11-25T03:35:24;6.17;;;1.93;;
4839;SDS011;2434;48.486;7.964;2022-11-25T03:37:52;2.30;;;1.60;;
4839;SDS011;2434;48.486;7.964;2022-11-25T03:40:20;2.40;;;1.67;;
4839;SDS011;2434;48.486;7.964;2022-11-25T03:42:49;2.70;;;1.70;;
4839;SDS011;2434;48.486;7.964;2022-11-25T03:45:19;2.00;;;1.30;;
4839;SDS011;2434;48.486;7.964;2022-11-25T03:47:48;2.57;;;1.53;;
4839;SDS011;2434;48.486;7.964;2022-11-25T03:50:16;2.17;;;1.20;;
4839;SDS011;2434;48.486;7.964;2022-11-25T03:52:46;5.10;;;1.50;;
4839;SDS011;2434;48.486;7.964;2022-11-25T03:55:16;3.43;;;1.40;;
4839;SDS011;2434;48.486;7.964;2022-11-25T03:57:45;3.83;;;1.30;;
4839;SDS011;2434;48.486;7.964;2022-11-25T04:00:13;2.77;;;1.30;;
4839;SDS011;2434;48.486;7.964;2022-11-25T04:02:59;2.63;;;1.57;;
4839;SDS011;2434;48.486;7.964;2022-11-25T04:05:30;3.30;;;1.60;;
4839;SDS011;2434;48.486;7.964;2022-11-25T04:08:03;3.67;;;1.73;;
4839;SDS011;2434;48.486;7.964;2022-11-25T04:10:33;2.47;;;1.43;;
4839;SDS011;2434;48.486;7.964;2022-11-25T04:13:02;6.60;;;1.77;;
4839;SDS011;2434;48.486;7.964;2022-11-25T04:15:34;4.10;;;1.70;;
4839;SDS011;2434;48.486;7.964;2022-11-25T04:18:06;3.87;;;1.97;;
4839;SDS011;2434;48.486;7.964;2022-11-25T04:20:34;2.50;;;1.70;;
4839;SDS011;2434;48.486;7.964;2022-11-25T04:23:05;2.83;;;1.90;;
4839;SDS011;2434;48.486;7.964;2022-11-25T04:25:41;6.53;;;1.50;;
4839;SDS011;2434;48.486;7.964;2022-11-25T04:28:20;2.03;;;1.23;;
4839;SDS011;2434;48.486;7.964;2022-11-25T04:30:48;3.10;;;1.47;;
4839;SDS011;2434;48.486;7.964;2022-11-25T04:33:18;4.47;;;1.60;;
4839;SDS011;2434;48.486;7.964;2022-11-25T04:35:47;1.63;;;1.10;;
4839;SDS011;2434;48.486;7.964;2022-11-25T04:38:15;3.27;;;1.30;;
4839;SDS011;2434;48.486;7.964;2022-11-25T04:40:44;1.90;;;0.93;;
4839;SDS011;2434;48.486;7.964;2022-11-25T04:43:15;2.73;;;1.30;;
4839;SDS011;2434;48.486;7.964;2022-11-25T04:45:48;1.93;;;1.13;;
4839;SDS011;2434;48.486;7.964;2022-11-25T04:48:39;5.40;;;1.47;;
4839;SDS011;2434;48.486;7.964;2022-11-25T04:51:08;4.67;;;1.30;;
4839;SDS011;2434;48.486;7.964;2022-11-25T04:53:36;5.77;;;1.40;;
4839;SDS011;2434;48.486;7.964;2022-11-25T04:56:06;3.60;;;1.50;;
4839;SDS011;2434;48.486;7.964;2022-11-25T04:58:41;6.40;;;1.47;;
4839;SDS011;2434;48.486;7.964;2022-11-25T05:01:27;2.37;;;1.20;;
4839;SDS011;2434;48.486;7.964;2022-11-25T05:04:06;1.13;;;1.03;;
4839;SDS011;2434;48.486;7.964;2022-11-25T05:06:35;2.27;;;1.30;;
4839;SDS011;2434;48.486;7.964;2022-11-25T05:09:04;2.37;;;1.30;;
4839;SDS011;2434;48.486;7.964;2022-11-25T05:11:35;4.50;;;1.33;;
4839;SDS011;2434;48.486;7.964;2022-11-25T05:14:04;3.00;;;1.30;;
4839;SDS011;2434;48.486;7.964;2022-11-25T05:16:32;2.50;;;1.10;;
4839;SDS011;2434;48.486;7.964;2022-11-25T05:19:02;3.00;;;1.60;;
4839;SDS011;2434;48.486;7.964;2022-11-25T05:21:32;2.20;;;1.40;;
4839;SDS011;2434;48.486;7.964;2022-11-25T05:24:00;3.50;;;1.60;;
4839;SDS011;2434;48.486;7.964;2022-11-25T05:26:31;5.20;;;1.57;;
4839;SDS011;2434;48.486;7.964;2022-11-25T05:28:59;3.53;;;1.33;;
4839;SDS011;2434;48.486;7.964;2022-11-25T05:31:30;3.13;;;1.60;;
4839;SDS011;2434;48.486;7.964;2022-11-25T05:33:59;6.60;;;1.70;;
4839;SDS011;2434;48.486;7.964;2022-11-25T05:36:28;4.70;;;1.70;;
4839;SDS011;2434;48.486;7.964;2022-11-25T05:38:58;3.00;;;1.63;;
4839;SDS011;2434;48.486;7.964;2022-11-25T05:41:47;3.47;;;1.80;;
4839;SDS011;2434;48.486;7.964;2022-11-25T05:44:15;2.63;;;1.90;;
4839;SDS011;2434;48.486;7.964;2022-11-25T05:46:48;11.40;;;2.20;;
4839;SDS011;2434;48.486;7.964;2022-11-25T05:49:17;3.70;;;1.60;;
4839;SDS011;2434;48.486;7.964;2022-11-25T05:51:48;2.90;;;1.30;;
4839;SDS011;2434;48.486;7.964;2022-11-25T05:54:22;3.10;;;1.70;;
4839;SDS011;2434;48.486;7.964;2022-11-25T05:56:51;3.00;;;1.83;;
4839;SDS011;2434;48.486;7.964;2022-11-25T05:59:30;3.30;;;1.60;;
4839;SDS011;2434;48.486;7.964;2022-11-25T06:02:07;2.37;;;1.30;;
4839;SDS011;2434;48.486;7.964;2022-11-25T06:04:35;8.60;;;1.73;;
4839;SDS011;2434;48.486;7.964;2022-11-25T06:07:04;2.80;;;1.90;;
4839;SDS011;2434;48.486;7.964;2022-11-25T06:09:34;2.43;;;2.23;;
4839;SDS011;2434;48.486;7.964;2022-11-25T06:12:02;4.57;;;1.60;;
4839;SDS011;2434;48.486;7.964;2022-11-25T06:14:35;1.93;;;1.30;;
4839;SDS011;2434;48.486;7.964;2022-11-25T06:17:03;4.87;;;1.80;;
4839;SDS011;2434;48.486;7.964;2022-11-25T06:19:45;2.07;;;1.63;;
4839;SDS011;2434;48.486;7.964;2022-11-25T06:22:14;3.37;;;1.50;;
4839;SDS011;2434;48.486;7.964;2022-11-25T06:24:44;4.33;;;1.43;;
4839;SDS011;2434;48.486;7.964;2022-11-25T06:27:24;1.90;;;1.20;;
4839;SDS011;2434;48.486;7.964;2022-11-25T06:30:09;2.67;;;1.30;;
4839;SDS011;2434;48.486;7.964;2022-11-25T06:32:44;4.40;;;1.63;;
4839;SDS011;2434;48.486;7.964;2022-11-25T06:35:19;3.37;;;1.27;;
4839;SDS011;2434;48.486;7.964;2022-11-25T06:37:54;2.07;;;1.47;;
4839;SDS011;2434;48.486;7.964;2022-11-25T06:40:25;2.50;;;1.63;;
4839;SDS011;2434;48.486;7.964;2022-11-25T06:42:53;5.80;;;2.00;;
4839;SDS011;2434;48.486;7.964;2022-11-25T06:45:22;6.13;;;2.10;;
4839;SDS011;2434;48.486;7.964;2022-11-25T06:47:50;2.60;;;1.30;;
4839;SDS011;2434;48.486;7.964;2022-11-25T06:50:19;2.83;;;1.90;;
4839;SDS011;2434;48.486;7.964;2022-11-25T06:52:47;3.20;;;2.00;;
4839;SDS011;2434;48.486;7.964;2022-11-25T06:55:15;4.27;;;1.60;;
4839;SDS011;2434;48.486;7.964;2022-11-25T06:57:45;2.47;;;2.10;;
4839;SDS011;2434;48.486;7.964;2022-11-25T07:00:13;3.77;;;2.27;;
4839;SDS011;2434;48.486;7.964;2022-11-25T07:02:42;3.70;;;2.03;;
4839;SDS011;2434;48.486;7.964;2022-11-25T07:05:14;2.27;;;2.07;;
4839;SDS011;2434;48.486;7.964;2022-11-25T07:07:42;3.87;;;1.93;;
4839;SDS011;2434;48.486;7.964;2022-11-25T07:10:10;3.00;;;1.77;;
4839;SDS011;2434;48.486;7.964;2022-11-25T07:12:38;5.63;;;2.27;;
4839;SDS011;2434;48.486;7.964;2022-11-25T07:15:08;4.80;;;2.50;;
4839;SDS011;2434;48.486;7.964;2022-11-25T07:17:37;7.00;;;2.53;;
4839;SDS011;2434;48.486;7.964;2022-11-25T07:20:06;4.70;;;2.70;;
4839;SDS011;2434;48.486;7.964;2022-11-25T07:22:35;3.53;;;1.87;;
4839;SDS011;2434;48.486;7.964;2022-11-25T07:25:03;3.57;;;2.20;;
4839;SDS011;2434;48.486;7.964;2022-11-25T07:27:34;3.40;;;2.27;;
4839;SDS011;2434;48.486;7.964;2022-11-25T07:30:03;5.03;;;2.17;;
4839;SDS011;2434;48.486;7.964;2022-11-25T07:32:54;4.83;;;1.73;;
4839;SDS011;2434;48.486;7.964;2022-11-25T07:35:22;5.80;;;2.50;;
4839;SDS011;2434;48.486;7.964;2022-11-25T07:37:50;4.07;;;2.60;;
4839;SDS011;2434;48.486;7.964;2022-11-25T07:40:19;3.80;;;2.93;;
4839;SDS011;2434;48.486;7.964;2022-11-25T07:42:47;4.53;;;3.00;;
4839;SDS011;2434;48.486;7.964;2022-11-25T07:45:15;5.80;;;3.33;;
4839;SDS011;2434;48.486;7.964;2022-11-25T07:47:44;4.83;;;3.50;;
4839;SDS011;2434;48.486;7.964;2022-11-25T07:50:14;6.90;;;3.37;;
4839;SDS011;2434;48.486;7.964;2022-11-25T07:52:42;6.60;;;2.77;;
4839;SDS011;2434;48.486;7.964;2022-11-25T07:55:10;4.07;;;2.60;;
4839;SDS011;2434;48.486;7.964;2022-11-25T07:57:38;11.43;;;3.00;;
4839;SDS011;2434;48.486;7.964;2022-11-25T08:00:07;5.97;;;2.97;;
4839;SDS011;2434;48.486;7.964;2022-11-25T08:02:39;7.83;;;3.10;;
4839;SDS011;2434;48.486;7.964;2022-11-25T08:05:07;5.20;;;2.80;;
4839;SDS011;2434;48.486;7.964;2022-11-25T08:07:37;5.73;;;3.30;;
4839;SDS011;2434;48.486;7.964;2022-11-25T08:10:06;6.00;;;2.47;;
4839;SDS011;2434;48.486;7.964;2022-11-25T08:12:35;3.60;;;1.97;;
4839;SDS011;2434;48.486;7.964;2022-11-25T08:15:03;6.63;;;2.30;;
4839;SDS011;2434;48.486;7.964;2022-11-25T08:17:32;6.33;;;2.80;;
4839;SDS011;2434;48.486;7.964;2022-11-25T08:20:00;4.17;;;2.50;;
4839;SDS011;2434;48.486;7.964;2022-11-25T08:22:29;6.57;;;2.60;;
4839;SDS011;2434;48.486;7.964;2022-11-25T08:24:58;12.37;;;3.03;;
4839;SDS011;2434;48.486;7.964;2022-11-25T08:27:26;7.00;;;3.27;;
4839;SDS011;2434;48.486;7.964;2022-11-25T08:29:54;7.73;;;3.10;;
4839;SDS011;2434;48.486;7.964;2022-11-25T08:32:22;5.03;;;3.00;;
4839;SDS011;2434;48.486;7.964;2022-11-25T08:34:50;7.50;;;2.73;;
4839;SDS011;2434;48.486;7.964;2022-11-25T08:37:19;13.43;;;2.67;;
4839;SDS011;2434;48.486;7.964;2022-11-25T08:39:47;8.47;;;2.97;;
4839;SDS011;2434;48.486;7.964;2022-11-25T08:42:20;4.53;;;2.50;;
4839;SDS011;2434;48.486;7.964;2022-11-25T08:44:50;9.23;;;2.70;;
4839;SDS011;2434;48.486;7.964;2022-11-25T08:47:19;7.23;;;2.63;;
4839;SDS011;2434;48.486;7.964;2022-11-25T08:49:49;17.27;;;3.97;;
4839;SDS011;2434;48.486;7.964;2022-11-25T08:52:18;9.87;;;3.50;;
4839;SDS011;2434;48.486;7.964;2022-11-25T08:54:46;11.17;;;3.33;;
4839;SDS011;2434;48.486;7.964;2022-11-25T08:57:15;9.63;;;3.23;;
4839;SDS011;2434;48.486;7.964;2022-11-25T08:59:44;8.27;;;3.77;;
4839;SDS011;2434;48.486;7.964;2022-11-25T09:02:14;9.20;;;5.10;;
4839;SDS011;2434;48.486;7.964;2022-11-25T09:04:43;10.90;;;4.33;;
4839;SDS011;2434;48.486;7.964;2022-11-25T09:07:11;11.07;;;5.10;;
4839;SDS011;2434;48.486;7.964;2022-11-25T09:09:40;9.83;;;4.70;;
4839;SDS011;2434;48.486;7.964;2022-11-25T09:12:08;12.73;;;4.70;;
4839;SDS011;2434;48.486;7.964;2022-11-25T09:14:36;9.50;;;4.50;;
4839;SDS011;2434;48.486;7.964;2022-11-25T09:17:08;11.47;;;4.60;;
4839;SDS011;2434;48.486;7.964;2022-11-25T09:19:37;12.00;;;5.47;;
4839;SDS011;2434;48.486;7.964;2022-11-25T09:22:05;15.43;;;5.43;;
4839;SDS011;2434;48.486;7.964;2022-11-25T09:24:34;14.20;;;4.73;;
4839;SDS011;2434;48.486;7.964;2022-11-25T09:27:03;8.43;;;5.60;;
4839;SDS011;2434;48.486;7.964;2022-11-25T09:29:31;9.40;;;4.90;;
4839;SDS011;2434;48.486;7.964;2022-11-25T09:31:59;8.67;;;4.60;;
4839;SDS011;2434;48.486;7.964;2022-11-25T09:34:29;23.23;;;6.43;;
4839;SDS011;2434;48.486;7.964;2022-11-25T09:36:57;7.03;;;4.20;;
4839;SDS011;2434;48.486;7.964;2022-11-25T09:39:25;10.90;;;5.47;;
4839;SDS011;2434;48.486;7.964;2022-11-25T09:42:03;9.87;;;5.90;;
4839;SDS011;2434;48.486;7.964;2022-11-25T09:45:02;10.07;;;5.80;;
4839;SDS011;2434;48.486;7.964;2022-11-25T09:47:59;12.30;;;6.30;;
4839;SDS011;2434;48.486;7.964;2022-11-25T09:50:40;12.50;;;7.57;;
4839;SDS011;2434;48.486;7.964;2022-11-25T09:53:22;14.47;;;7.50;;
4839;SDS011;2434;48.486;7.964;2022-11-25T09:56:00;15.13;;;7.83;;
4839;SDS011;2434;48.486;7.964;2022-11-25T09:58:31;14.63;;;8.30;;
4839;SDS011;2434;48.486;7.964;2022-11-25T10:01:03;16.80;;;9.00;;
4839;SDS011;2434;48.486;7.964;2022-11-25T10:03:33;16.03;;;8.20;;
4839;SDS011;2434;48.486;7.964;2022-11-25T10:06:07;19.33;;;9.00;;
4839;SDS011;2434;48.486;7.964;2022-11-25T10:08:42;14.87;;;7.60;;
4839;SDS011;2434;48.486;7.964;2022-11-25T10:11:14;14.87;;;8.43;;
4839;SDS011;2434;48.486;7.964;2022-11-25T10:13:50;22.10;;;9.57;;
4839;SDS011;2434;48.486;7.964;2022-11-25T10:16:27;17.80;;;9.20;;
4839;SDS011;2434;48.486;7.964;2022-11-25T10:19:01;14.67;;;7.63;;
4839;SDS011;2434;48.486;7.964;2022-11-25T10:21:38;13.53;;;8.70;;
4839;SDS011;2434;48.486;7.964;2022-11-25T10:24:08;16.50;;;8.20;;
4839;SDS011;2434;48.486;7.964;2022-11-25T10:26:41;21.53;;;8.40;;
4839;SDS011;2434;48.486;7.964;2022-11-25T10:29:18;13.30;;;8.17;;
4839;SDS011;2434;48.486;7.964;2022-11-25T10:31:55;10.90;;;6.70;;
4839;SDS011;2434;48.486;7.964;2022-11-25T10:34:47;15.40;;;5.70;;
4839;SDS011;2434;48.486;7.964;2022-11-25T10:37:23;14.30;;;5.90;;
4839;SDS011;2434;48.486;7.964;2022-11-25T10:39:54;14.70;;;5.80;;
4839;SDS011;2434;48.486;7.964;2022-11-25T10:42:22;10.83;;;5.70;;
4839;SDS011;2434;48.486;7.964;2022-11-25T10:44:52;10.00;;;5.23;;
4839;SDS011;2434;48.486;7.964;2022-11-25T10:47:25;13.27;;;5.27;;
4839;SDS011;2434;48.486;7.964;2022-11-25T10:50:05;10.80;;;5.27;;
4839;SDS011;2434;48.486;7.964;2022-11-25T10:52:43;12.30;;;5.73;;
4839;SDS011;2434;48.486;7.964;2022-11-25T10:55:16;15.00;;;5.37;;
4839;SDS011;2434;48.486;7.964;2022-11-25T10:57:47;12.30;;;5.40;;
4839;SDS011;2434;48.486;7.964;2022-11-25T11:00:26;10.27;;;4.60;;
4839;SDS011;2434;48.486;7.964;2022-11-25T11:02:57;16.67;;;6.47;;
4839;SDS011;2434;48.486;7.964;2022-11-25T11:05:28;14.37;;;5.40;;
4839;SDS011;2434;48.486;7.964;2022-11-25T11:08:08;11.63;;;4.80;;
4839;SDS011;2434;48.486;7.964;2022-11-25T11:10:45;12.93;;;4.30;;
4839;SDS011;2434;48.486;7.964;2022-11-25T11:13:34;11.63;;;4.77;;
4839;SDS011;2434;48.486;7.964;2022-11-25T11:16:02;9.27;;;4.63;;
4839;SDS011;2434;48.486;7.964;2022-11-25T11:18:38;6.97;;;3.53;;
4839;SDS011;2434;48.486;7.964;2022-11-25T11:21:22;8.37;;;4.33;;
4839;SDS011;2434;48.486;7.964;2022-11-25T11:23:56;12.43;;;4.67;;
4839;SDS011;2434;48.486;7.964;2022-11-25T11:26:26;9.17;;;4.00;;
4839;SDS011;2434;48.486;7.964;2022-11-25T11:28:57;15.83;;;4.87;;
4839;SDS011;2434;48.486;7.964;2022-11-25T11:31:28;6.73;;;4.00;;
4839;SDS011;2434;48.486;7.964;2022-11-25T11:34:02;11.50;;;4.03;;
4839;SDS011;2434;48.486;7.964;2022-11-25T11:36:48;10.00;;;4.00;;
4839;SDS011;2434;48.486;7.964;2022-11-25T11:39:32;7.10;;;4.37;;
4839;SDS011;2434;48.486;7.964;2022-11-25T11:42:12;7.43;;;4.40;;
4839;SDS011;2434;48.486;7.964;2022-11-25T11:44:52;7.40;;;4.20;;
4839;SDS011;2434;48.486;7.964;2022-11-25T11:47:34;11.37;;;5.00;;
4839;SDS011;2434;48.486;7.964;2022-11-25T11:50:19;7.47;;;4.37;;
4839;SDS011;2434;48.486;7.964;2022-11-25T11:52:57;12.53;;;5.67;;
4839;SDS011;2434;48.486;7.964;2022-11-25T11:58:44;8.77;;;4.60;;
4839;SDS011;2434;48.486;7.964;2022-11-25T12:01:35;7.27;;;4.93;;
4839;SDS011;2434;48.486;7.964;2022-11-25T12:04:16;7.10;;;3.57;;
4839;SDS011;2434;48.486;7.964;2022-11-25T12:06:52;12.53;;;3.33;;
4839;SDS011;2434;48.486;7.964;2022-11-25T12:09:27;6.43;;;3.70;;
4839;SDS011;2434;48.486;7.964;2022-11-25T12:12:01;11.33;;;4.37;;
4839;SDS011;2434;48.486;7.964;2022-11-25T12:14:34;8.30;;;3.90;;
4839;SDS011;2434;48.486;7.964;2022-11-25T12:17:12;10.80;;;3.87;;
4839;SDS011;2434;48.486;7.964;2022-11-25T12:19:48;8.93;;;4.17;;
4839;SDS011;2434;48.486;7.964;2022-11-25T12:22:22;8.57;;;4.30;;
4839;SDS011;2434;48.486;7.964;2022-11-25T12:24:57;8.67;;;4.03;;
4839;SDS011;2434;48.486;7.964;2022-11-25T12:27:35;8.60;;;4.50;;
4839;SDS011;2434;48.486;7.964;2022-11-25T12:30:09;8.10;;;4.20;;
4839;SDS011;2434;48.486;7.964;2022-11-25T12:32:45;8.10;;;3.53;;
4839;SDS011;2434;48.486;7.964;2022-11-25T12:35:21;4.43;;;3.80;;
4839;SDS011;2434;48.486;7.964;2022-11-25T12:38:00;8.80;;;4.30;;
4839;SDS011;2434;48.486;7.964;2022-11-25T12:40:32;7.40;;;4.07;;
4839;SDS011;2434;48.486;7.964;2022-11-25T12:43:11;9.67;;;4.27;;
4839;SDS011;2434;48.486;7.964;2022-11-25T12:45:50;15.20;;;5.40;;
4839;SDS011;2434;48.486;7.964;2022-11-25T12:48:29;20.13;;;5.10;;
4839;SDS011;2434;48.486;7.964;2022-11-25T12:50:59;9.13;;;5.30;;
4839;SDS011;2434;48.486;7.964;2022-11-25T12:53:34;12.30;;;4.47;;
4839;SDS011;2434;48.486;7.964;2022-11-25T12:56:14;6.70;;;4.43;;
4839;SDS011;2434;48.486;7.964;2022-11-25T12:58:50;7.50;;;3.60;;
4839;SDS011;2434;48.486;7.964;2022-11-25T13:01:35;11.63;;;4.57;;
4839;SDS011;2434;48.486;7.964;2022-11-25T13:04:18;6.80;;;4.20;;
4839;SDS011;2434;48.486;7.964;2022-11-25T13:07:20;11.13;;;4.83;;
4839;SDS011;2434;48.486;7.964;2022-11-25T13:10:12;10.30;;;4.70;;
4839;SDS011;2434;48.486;7.964;2022-11-25T13:13:05;13.20;;;4.60;;
4839;SDS011;2434;48.486;7.964;2022-11-25T13:15:45;7.63;;;4.30;;
4839;SDS011;2434;48.486;7.964;2022-11-25T13:18:16;12.33;;;4.77;;
4839;SDS011;2434;48.486;7.964;2022-11-25T13:20:47;9.40;;;4.57;;
4839;SDS011;2434;48.486;7.964;2022-11-25T13:23:21;6.87;;;4.50;;
4839;SDS011;2434;48.486;7.964;2022-11-25T13:41:03;11.10;;;4.57;;
4839;SDS011;2434;48.486;7.964;2022-11-25T13:43:50;11.13;;;5.33;;
4839;SDS011;2434;48.486;7.964;2022-11-25T13:46:28;10.27;;;5.40;;
4839;SDS011;2434;48.486;7.964;2022-11-25T13:49:18;8.50;;;4.43;;
4839;SDS011;2434;48.486;7.964;2022-11-25T13:52:03;6.00;;;3.30;;
4839;SDS011;2434;48.486;7.964;2022-11-25T13:54:50;10.50;;;4.00;;
4839;SDS011;2434;48.486;7.964;2022-11-25T13:57:24;7.00;;;3.77;;
4839;SDS011;2434;48.486;7.964;2022-11-25T13:59:55;9.40;;;3.60;;
4839;SDS011;2434;48.486;7.964;2022-11-25T14:02:30;8.57;;;3.23;;
4839;SDS011;2434;48.486;7.964;2022-11-25T14:05:13;7.40;;;3.57;;
4839;SDS011;2434;48.486;7.964;2022-11-25T14:08:06;7.40;;;4.03;;
4839;SDS011;2434;48.486;7.964;2022-11-25T14:10:44;12.60;;;4.70;;
4839;SDS011;2434;48.486;7.964;2022-11-25T14:13:23;9.30;;;3.17;;
4839;SDS011;2434;48.486;7.964;2022-11-25T14:16:09;9.97;;;3.40;;
4839;SDS011;2434;48.486;7.964;2022-11-25T14:18:50;11.30;;;3.97;;
4839;SDS011;2434;48.486;7.964;2022-11-25T14:22:01;9.10;;;3.33;;
4839;SDS011;2434;48.486;7.964;2022-11-25T14:24:37;8.00;;;3.53;;
4839;SDS011;2434;48.486;7.964;2022-11-25T14:27:12;10.50;;;4.47;;
4839;SDS011;2434;48.486;7.964;2022-11-25T14:29:44;7.17;;;3.70;;
4839;SDS011;2434;48.486;7.964;2022-11-25T14:32:18;7.50;;;3.40;;
4839;SDS011;2434;48.486;7.964;2022-11-25T14:34:48;9.00;;;4.93;;
4839;SDS011;2434;48.486;7.964;2022-11-25T14:37:26;10.87;;;5.60;;
4839;SDS011;2434;48.486;7.964;2022-11-25T14:40:03;11.83;;;6.10;;
4839;SDS011;2434;48.486;7.964;2022-11-25T14:42:35;8.60;;;5.10;;
4839;SDS011;2434;48.486;7.964;2022-11-25T14:45:18;9.87;;;5.47;;
4839;SDS011;2434;48.486;7.964;2022-11-25T14:47:48;12.00;;;5.03;;
4839;SDS011;2434;48.486;7.964;2022-11-25T14:50:16;10.10;;;5.70;;
4839;SDS011;2434;48.486;7.964;2022-11-25T14:53:05;11.07;;;5.73;;
4839;SDS011;2434;48.486;7.964;2022-11-25T14:55:34;8.40;;;5.60;;
4839;SDS011;2434;48.486;7.964;2022-11-25T14:58:04;9.33;;;5.47;;
4839;SDS011;2434;48.486;7.964;2022-11-25T15:00:32;14.10;;;5.70;;
4839;SDS011;2434;48.486;7.964;2022-11-25T15:03:01;11.87;;;5.17;;
4839;SDS011;2434;48.486;7.964;2022-11-25T15:05:32;13.10;;;5.97;;
4839;SDS011;2434;48.486;7.964;2022-11-25T15:08:02;13.90;;;6.00;;
4839;SDS011;2434;48.486;7.964;2022-11-25T15:10:40;11.87;;;5.70;;
4839;SDS011;2434;48.486;7.964;2022-11-25T15:13:11;13.50;;;7.03;;
4839;SDS011;2434;48.486;7.964;2022-11-25T15:15:50;19.73;;;9.43;;
4839;SDS011;2434;48.486;7.964;2022-11-25T15:18:22;17.50;;;7.57;;
4839;SDS011;2434;48.486;7.964;2022-11-25T15:20:53;20.93;;;8.70;;
4839;SDS011;2434;48.486;7.964;2022-11-25T15:23:26;18.10;;;7.60;;
4839;SDS011;2434;48.486;7.964;2022-11-25T15:26:00;15.57;;;9.17;;
4839;SDS011;2434;48.486;7.964;2022-11-25T15:28:34;15.53;;;9.60;;
4839;SDS011;2434;48.486;7.964;2022-11-25T15:31:06;13.60;;;8.93;;
4839;SDS011;2434;48.486;7.964;2022-11-25T15:33:36;15.40;;;8.60;;
4839;SDS011;2434;48.486;7.964;2022-11-25T15:36:05;11.50;;;9.03;;
4839;SDS011;2434;48.486;7.964;2022-11-25T15:38:36;17.30;;;8.93;;
4839;SDS011;2434;48.486;7.964;2022-11-25T15:41:14;20.50;;;9.03;;
4839;SDS011;2434;48.486;7.964;2022-11-25T15:43:46;21.67;;;10.93;;
4839;SDS011;2434;48.486;7.964;2022-11-25T15:46:17;24.33;;;11.30;;
4839;SDS011;2434;48.486;7.964;2022-11-25T15:48:46;19.90;;;12.57;;
4839;SDS011;2434;48.486;7.964;2022-11-25T15:54:03;26.70;;;16.03;;
4839;SDS011;2434;48.486;7.964;2022-11-25T15:56:34;26.17;;;15.73;;
4839;SDS011;2434;48.486;7.964;2022-11-25T15:59:33;28.60;;;17.90;;
4839;SDS011;2434;48.486;7.964;2022-11-25T16:05:14;26.13;;;13.40;;
4839;SDS011;2434;48.486;7.964;2022-11-25T16:11:08;24.67;;;13.20;;
4839;SDS011;2434;48.486;7.964;2022-11-25T16:13:40;26.27;;;14.03;;